Voyager Of The Seas — C6SE5 — position and weather

sailwx.info

Track history (hours):
 
Tides and Currents Weather Stations Pressure Air Temp Water Temp Dewpoint Dewpoint Depression Visibility Wind Speed Wind Dir Waves Ship Positions

Voyager Of The Seas

Operator: Royal Caribbean Cruises Ltd

Last reported at 2014-Oct-17 08:31 UTC. Time now 2014-Oct-26 05:05 UTC.
Position N 01°09' E 103°44'.
Warning: this ship's position is 8 days out of date.

Type: Passenger vessel. MMSI: 311317000.

Date/timePositionNaut miles runAvg speedWind from/ knotsBaromVisibWave heightAir tempDewpointWater temp
2014-Oct-17 08:31N 01°09' E 103°44'10 9.7
2014-Oct-17 07:29N 01°16' E 103°52'0 0.0
2014-Oct-17 05:21N 01°16' E 103°52'0 0.0
2014-Oct-17 04:15N 01°16' E 103°52'0 0.0
2014-Oct-17 03:12N 01°16' E 103°52'0 0.0
2014-Oct-17 00:12N 01°16' E 103°52'0 0.0
2014-Oct-16 23:30N 01°16' E 103°52'0 0.5
2014-Oct-16 22:33N 01°16' E 103°52'8 8.1
2014-Oct-16 21:33N 01°16' E 103°60'  
2014-Oct-09 14:15N 22°20' E 119°58'1418.0
2014-Oct-09 13:27N 22°30' E 120°08'10 9.1
2014-Oct-09 12:20N 22°35' E 120°18'2 3.0
2014-Oct-09 11:31N 22°37' E 120°17'0 0.0
2014-Oct-09 10:25N 22°37' E 120°17'0 0.0
2014-Oct-09 09:34N 22°37' E 120°17'0 0.0
2014-Oct-09 08:27N 22°37' E 120°17'0 0.0
2014-Oct-09 07:28N 22°37' E 120°17'0 0.0
2014-Oct-09 06:28N 22°37' E 120°17'0 0.0
2014-Oct-09 05:04N 22°37' E 120°17'0 0.9
2014-Oct-09 04:34N 22°37' E 120°17'4 4.1
2014-Oct-09 03:33N 22°32' E 120°16'1615.8
2014-Oct-09 02:33N 22°28' E 119°60'32018.7
2014-Oct-08 09:25N 22°17' E 114°14'1 1.4
2014-Oct-08 08:29N 22°18' E 114°13'0 0.0
2014-Oct-08 07:32N 22°18' E 114°13'0 0.0
2014-Oct-08 06:32N 22°18' E 114°13'0 0.0
2014-Oct-08 05:32N 22°18' E 114°13'0 0.0
2014-Oct-08 04:32N 22°18' E 114°13'0 0.0
2014-Oct-08 03:32N 22°18' E 114°13'0 0.0
2014-Oct-08 02:32N 22°18' E 114°13'0 0.0
2014-Oct-08 01:32N 22°18' E 114°13'0 0.0
2014-Oct-08 00:32N 22°18' E 114°13'0 0.0
2014-Oct-07 23:32N 22°18' E 114°13'  
Track history (hours):
 
Tides and Currents Weather Stations Pressure Air Temp Water Temp Dewpoint Dewpoint Depression Visibility Wind Speed Wind Dir Waves Ship Positions

Voyager Of The Seas

Operator: Royal Caribbean Cruises Ltd

Last reported at 2014-Oct-17 08:31 UTC. Time now 2014-Oct-26 05:05 UTC.
Position N 01°09' E 103°44'.
Warning: this ship's position is 8 days out of date.

Type: Passenger vessel. MMSI: 311317000.

Date/timePositionNaut miles runAvg speedWind from/ knotsBaromVisibWave heightAir tempDewpointWater temp
2014-Oct-17 08:31N 01°09' E 103°44'10 9.7
2014-Oct-17 07:29N 01°16' E 103°52'0 0.0
2014-Oct-17 05:21N 01°16' E 103°52'0 0.0
2014-Oct-17 04:15N 01°16' E 103°52'0 0.0
2014-Oct-17 03:12N 01°16' E 103°52'0 0.0
2014-Oct-17 00:12N 01°16' E 103°52'0 0.0
2014-Oct-16 23:30N 01°16' E 103°52'0 0.5
2014-Oct-16 22:33N 01°16' E 103°52'8 8.1
2014-Oct-16 21:33N 01°16' E 103°60'  
2014-Oct-09 14:15N 22°20' E 119°58'1418.0
2014-Oct-09 13:27N 22°30' E 120°08'10 9.1
2014-Oct-09 12:20N 22°35' E 120°18'2 3.0
2014-Oct-09 11:31N 22°37' E 120°17'0 0.0
2014-Oct-09 10:25N 22°37' E 120°17'0 0.0
2014-Oct-09 09:34N 22°37' E 120°17'0 0.0
2014-Oct-09 08:27N 22°37' E 120°17'0 0.0
2014-Oct-09 07:28N 22°37' E 120°17'0 0.0
2014-Oct-09 06:28N 22°37' E 120°17'0 0.0
2014-Oct-09 05:04N 22°37' E 120°17'0 0.9
2014-Oct-09 04:34N 22°37' E 120°17'4 4.1
2014-Oct-09 03:33N 22°32' E 120°16'1615.8
2014-Oct-09 02:33N 22°28' E 119°60'32018.7
2014-Oct-08 09:25N 22°17' E 114°14'1 1.4
2014-Oct-08 08:29N 22°18' E 114°13'0 0.0
2014-Oct-08 07:32N 22°18' E 114°13'0 0.0
2014-Oct-08 06:32N 22°18' E 114°13'0 0.0
2014-Oct-08 05:32N 22°18' E 114°13'0 0.0
2014-Oct-08 04:32N 22°18' E 114°13'0 0.0
2014-Oct-08 03:32N 22°18' E 114°13'0 0.0
2014-Oct-08 02:32N 22°18' E 114°13'0 0.0
2014-Oct-08 01:32N 22°18' E 114°13'0 0.0
2014-Oct-08 00:32N 22°18' E 114°13'0 0.0
2014-Oct-07 23:32N 22°18' E 114°13'  

Dump ship's entire track history